Time;durP1;ratioP1;P1;durP2;ratioP2;P2;SDS_P1;SDS_P2;PMS_P1;PMS_P2;Temp;Humidity;BMP_temperature;BMP_pressure;BME280_temperature;BME280_humidity;BME280_pressure;Samples;Min_cycle;Max_cycle;Signal;HPM_P1;HPM_P2
2023/04/24 00:00:23;;;;;;;5.85;1.92;;;9.20;99.90;;;;;;6141956;23;20037;-91
2023/04/24 00:03:12;;;;;;;3.47;1.67;;;9.20;99.90;;;;;;6144312;23;20061;-90
2023/04/24 00:06:50;;;;;;;2.70;1.50;;;9.20;94.00;;;;;;6031953;23;20027;-87
2023/04/24 00:17:21;;;;;;;;;;;;;;;;;;;;;
2023/04/24 00:20:46;;;;;;;2.00;1.85;;;9.20;99.90;;;;;;6036518;23;20016;-84
2023/04/24 00:23:49;;;;;;;2.25;1.35;;;9.30;99.90;;;;;;6037184;23;20069;-87
2023/04/24 00:26:39;;;;;;;1.75;1.40;;;9.20;20.70;;;;;;6027184;23;20035;-90
2023/04/24 00:30:09;;;;;;;9.27;1.40;;;9.30;1.00;;;;;;6112153;23;20081;-90
2023/04/24 00:33:07;;;;;;;3.10;1.45;;;9.30;1.00;;;;;;6113985;23;20015;-91
2023/04/24 00:35:54;;;;;;;3.78;1.40;;;9.30;99.90;;;;;;6091974;23;20031;-89
2023/04/24 00:39:38;;;;;;;;;;;;;;;;;;;;;
2023/04/24 00:42:58;;;;;;;1.48;1.20;;;9.30;99.90;;;;;;6106431;23;20040;-92
2023/04/24 00:46:07;;;;;;;;;;;;;;;;;;;;;
2023/04/24 00:53:46;;;;;;;4.10;1.20;;;9.70;99.90;;;;;;6109013;23;20020;-93
2023/04/24 00:56:47;;;;;;;2.58;1.48;;;9.70;1.00;;;;;;6088784;23;20022;-91
2023/04/24 01:00:09;;;;;;;;;;;;;;;;;;;;;
2023/04/24 01:03:20;;;;;;;1.63;1.25;;;9.80;99.90;;;;;;6109713;23;20074;-93
2023/04/24 01:06:41;;;;;;;1.67;1.40;;;9.80;99.90;;;;;;6114342;23;20030;-95
2023/04/24 01:10:01;;;;;;;3.45;2.15;;;9.80;99.90;;;;;;6110619;23;20297;-93
2023/04/24 01:26:10;;;;;;;3.40;2.58;;;9.70;99.90;;;;;;6050090;23;20082;-93
2023/04/24 01:33:47;;;;;;;7.40;2.42;;;9.60;99.90;;;;;;5996314;24;20042;-93
2023/04/24 01:37:40;;;;;;;3.40;1.83;;;9.50;1.00;;;;;;5915460;24;20025;-93
2023/04/24 01:53:20;;;;;;;5.18;1.50;;;9.30;27.20;;;;;;5837150;24;20036;-92
2023/04/24 01:56:35;;;;;;;2.60;1.33;;;9.20;99.90;;;;;;5893132;23;20020;-94
2023/04/24 02:04:43;;;;;;;;;;;;;;;;;;;;;
2023/04/24 02:08:57;;;;;;;2.85;1.45;;;8.90;1.00;;;;;;5972064;23;20019;-91
2023/04/24 02:21:37;;;;;;;;;;;;;;;;;;;;;
2023/04/24 02:25:08;;;;;;;;;;;;;;;;;;;;;
2023/04/24 02:54:36;;;;;;;6.35;1.80;;;8.90;99.90;;;;;;5157214;27;20408;-92
2023/04/24 02:57:24;;;;;;;5.35;1.95;;;8.80;99.90;;;;;;5121453;27;20047;-90
2023/04/24 03:01:21;;;;;;;;;;;;;;;;;;;;;
2023/04/24 03:08:45;;;;;;;1.88;1.25;;;8.80;99.90;;;;;;4966578;28;20047;-90
2023/04/24 03:11:52;;;;;;;2.00;1.52;;;8.80;99.90;;;;;;4896161;29;20056;-92
2023/04/24 03:15:49;;;;;;;;;;;;;;;;;;;;;
2023/04/24 03:19:29;;;;;;;6.13;1.70;;;8.70;99.90;;;;;;4912772;29;20079;-91
2023/04/24 03:22:52;;;;;;;9.93;2.05;;;8.70;99.90;;;;;;4922525;29;20168;-93
2023/04/24 03:25:51;;;;;;;;;;;;;;;;;;;;;
2023/04/24 03:41:09;;;;;;;2.50;1.80;;;8.70;99.90;;;;;;4834118;29;20050;-92
2023/04/24 03:44:31;;;;;;;1.75;1.23;;;8.60;99.90;;;;;;4870252;29;20045;-91
2023/04/24 04:04:22;;;;;;;;;;;8.30;99.90;;;;;;4913630;29;20029;-91
2023/04/24 04:11:46;;;;;;;5.43;1.60;;;8.30;99.90;;;;;;4888479;29;20029;-92
2023/04/24 04:14:39;;;;;;;3.17;1.58;;;8.40;99.90;;;;;;4936227;29;20456;-91
2023/04/24 04:17:52;;;;;;;;;;;;;;;;;;;;;
2023/04/24 04:25:59;;;;;;;;;;;;;;;;;;;;;
2023/04/24 04:29:11;;;;;;;3.25;1.50;;;8.60;99.90;;;;;;4905099;29;20083;-90
2023/04/24 04:32:04;;;;;;;4.00;1.58;;;8.70;99.90;;;;;;4904201;29;20060;-92
2023/04/24 04:34:53;;;;;;;2.97;1.50;;;8.70;99.90;;;;;;4980349;28;20050;-87
2023/04/24 04:38:10;;;;;;;5.25;1.33;;;8.70;99.90;;;;;;5033463;28;20064;-90
2023/04/24 04:41:03;;;;;;;4.45;2.45;;;8.70;99.90;;;;;;5056611;28;20103;-87
2023/04/24 04:43:50;;;;;;;3.92;2.90;;;8.50;99.90;;;;;;5110375;28;20040;-90
2023/04/24 04:46:38;;;;;;;5.13;2.30;;;8.20;99.90;;;;;;5103292;28;20040;-89
2023/04/24 04:49:28;;;;;;;5.63;2.53;;;8.00;99.90;;;;;;5102499;28;20396;-90
2023/04/24 04:52:26;;;;;;;3.00;2.45;;;7.80;99.90;;;;;;5106231;28;20452;-91
2023/04/24 04:55:16;;;;;;;6.50;2.65;;;7.60;99.90;;;;;;5121843;27;20104;-89
2023/04/24 04:58:06;;;;;;;4.38;2.45;;;7.60;99.90;;;;;;5114111;28;20030;-85
2023/04/24 05:00:53;;;;;;;4.30;2.22;;;7.50;99.90;;;;;;5119995;28;20039;-87
2023/04/24 05:03:41;;;;;;;4.25;2.30;;;7.50;99.90;;;;;;5105523;28;20111;-88
2023/04/24 05:10:56;;;;;;;4.10;2.85;;;7.40;99.90;;;;;;5122283;28;20114;-89
2023/04/24 05:49:20;;;;;;;4.10;3.30;;;7.90;99.90;;;;;;4963544;29;20423;-92
2023/04/24 05:53:17;;;;;;;;;;;;;;;;;;;;;
2023/04/24 05:57:01;;;;;;;5.20;3.65;;;7.90;99.90;;;;;;4908662;29;20139;-91
2023/04/24 06:00:21;;;;;;;4.50;3.35;;;8.00;99.90;;;;;;4908439;29;20051;-90
2023/04/24 06:06:55;;;;;;;5.78;3.45;;;8.00;31.20;;;;;;4949777;29;20054;-93
2023/04/24 06:11:16;;;;;;;;;;;;;;;;;;;;;
2023/04/24 06:18:35;;;;;;;6.70;2.97;;;8.30;1.00;;;;;;4865676;29;20045;-93
2023/04/24 06:21:46;;;;;;;4.88;3.08;;;8.50;1.00;;;;;;4807899;29;20049;-91
2023/04/24 06:25:19;;;;;;;;;;;;;;;;;;;;;
2023/04/24 06:28:43;;;;;;;3.00;2.70;;;9.40;99.90;;;;;;4865194;29;20112;-91
2023/04/24 06:32:30;;;;;;;6.78;3.25;;;9.60;99.90;;;;;;4873013;29;20143;-93
2023/04/24 06:35:44;;;;;;;;;;;;;;;;;;;;;
2023/04/24 06:39:12;;;;;;;2.50;2.15;;;9.60;1.00;;;;;;4761308;30;20047;-94
2023/04/24 06:42:32;;;;;;;;;;;;;;;;;;;;;
2023/04/24 06:46:23;;;;;;;;;;;;;;;;;;;;;
2023/04/24 06:49:32;;;;;;;4.38;2.30;;;10.50;1.00;;;;;;4777115;29;20082;-91
2023/04/24 06:52:34;;;;;;;4.00;2.45;;;10.50;99.90;;;;;;4785823;29;20116;-90
2023/04/24 06:59:43;;;;;;;2.88;2.30;;;10.60;99.90;;;;;;4809431;29;20038;-92
2023/04/24 07:02:32;;;;;;;3.38;2.17;;;10.40;99.90;;;;;;4823794;29;20092;-91
2023/04/24 07:06:26;;;;;;;;;;;;;;;;;;;;;
2023/04/24 07:13:56;;;;;;;1.30;1.20;;;9.80;1.00;;;;;;4860803;29;20046;-91
2023/04/24 07:42:01;;;;;;;1.52;1.30;;;10.60;1.00;;;;;;4824730;29;20046;-91
2023/04/24 07:45:32;;;;;;;;;;;;;;;;;;;;;
2023/04/24 08:02:07;;;;;;;2.95;1.60;;;10.80;85.00;;;;;;4790451;29;20055;-88
2023/04/24 08:04:59;;;;;;;2.25;1.80;;;10.60;16.40;;;;;;4794564;29;20439;-86
2023/04/24 08:07:57;;;;;;;1.70;1.52;;;10.70;11.80;;;;;;4804341;29;20151;-87
2023/04/24 08:10:59;;;;;;;2.50;1.70;;;10.90;1.00;;;;;;4798309;29;20142;-87
2023/04/24 08:13:47;;;;;;;1.55;1.45;;;10.60;1.00;;;;;;4803129;29;21586;-85
2023/04/24 08:16:36;;;;;;;2.20;1.50;;;10.20;1.00;;;;;;4807247;29;20113;-87
2023/04/24 08:19:28;;;;;;;2.75;1.90;;;10.00;1.00;;;;;;4805336;29;20448;-85
2023/04/24 08:22:17;;;;;;;2.13;1.80;;;10.10;1.00;;;;;;4851278;29;20199;-84
2023/04/24 08:25:06;;;;;;;5.85;2.47;;;10.30;1.00;;;;;;4877662;29;20057;-86
2023/04/24 08:27:57;;;;;;;2.00;1.73;;;10.70;1.00;;;;;;4865873;29;20067;-84
2023/04/24 08:30:54;;;;;;;1.90;1.70;;;11.50;1.00;;;;;;4861113;29;20045;-85
2023/04/24 08:33:49;;;;;;;1.63;1.42;;;11.70;1.00;;;;;;4892809;29;20051;-88
2023/04/24 08:36:41;;;;;;;2.65;1.63;;;11.90;99.90;;;;;;4944658;28;20046;-87
2023/04/24 08:39:33;;;;;;;;;;;12.20;99.90;;;;;;4929770;29;20616;-86
2023/04/24 08:42:28;;;;;;;2.95;1.63;;;12.30;99.90;;;;;;4954824;28;20050;-84
2023/04/24 08:45:19;;;;;;;3.47;1.60;;;12.30;99.90;;;;;;4952751;28;20046;-86
2023/04/24 08:48:07;;;;;;;3.67;1.42;;;12.10;99.90;;;;;;4954730;29;20189;-83
2023/04/24 08:51:14;;;;;;;4.22;1.88;;;11.70;99.90;;;;;;4952586;28;20095;-85
2023/04/24 08:54:04;;;;;;;3.10;1.70;;;11.40;99.90;;;;;;4938565;29;20051;-86
2023/04/24 08:56:58;;;;;;;6.22;2.45;;;11.10;99.90;;;;;;4952201;28;20055;-88
2023/04/24 08:59:54;;;;;;;4.40;1.75;;;11.20;99.90;;;;;;4937361;28;20051;-84
2023/04/24 09:02:49;;;;;;;2.60;1.70;;;11.80;99.90;;;;;;4955912;28;20199;-85
2023/04/24 09:05:40;;;;;;;8.32;1.75;;;12.10;99.90;;;;;;4952049;28;20051;-84
2023/04/24 09:08:29;;;;;;;2.60;1.75;;;12.50;99.90;;;;;;4944268;29;20101;-87
2023/04/24 09:11:22;;;;;;;4.32;1.60;;;12.90;99.90;;;;;;4953759;28;20050;-85
2023/04/24 09:14:10;;;;;;;4.30;1.70;;;13.30;99.90;;;;;;4954483;28;20047;-88
2023/04/24 09:17:03;;;;;;;2.75;1.45;;;13.90;99.90;;;;;;4951939;28;20091;-84
2023/04/24 09:19:51;;;;;;;4.65;1.65;;;13.70;99.90;;;;;;4925370;29;20488;-87
2023/04/24 09:22:41;;;;;;;2.78;1.52;;;13.30;99.90;;;;;;4938546;29;20195;-84
2023/04/24 09:25:41;;;;;;;2.58;1.40;;;13.40;99.90;;;;;;4953090;28;20134;-86
2023/04/24 09:28:35;;;;;;;4.53;1.50;;;13.70;99.90;;;;;;4955948;28;20054;-83
2023/04/24 09:31:27;;;;;;;2.08;1.27;;;14.30;99.90;;;;;;4940687;29;20051;-86
2023/04/24 09:34:25;;;;;;;1.88;1.20;;;14.90;99.90;;;;;;4943868;28;20146;-87
2023/04/24 09:38:12;;;;;;;3.20;1.00;;;14.70;99.90;;;;;;4955391;29;20099;-90
2023/04/24 09:41:13;;;;;;;1.35;1.00;;;15.00;99.90;;;;;;4948642;28;20393;-86
2023/04/24 09:44:20;;;;;;;2.78;1.02;;;15.40;99.90;;;;;;4963268;28;20050;-90
2023/04/24 09:51:03;;;;;;;3.25;1.00;;;15.30;78.10;;;;;;4941888;28;20047;-90
2023/04/24 09:53:59;;;;;;;4.32;1.20;;;14.70;79.00;;;;;;4940306;29;20055;-88
2023/04/24 09:57:02;;;;;;;1.95;0.90;;;13.60;63.00;;;;;;4943963;29;20457;-88
2023/04/24 09:59:53;;;;;;;3.42;1.38;;;12.80;54.90;;;;;;4950897;28;20074;-88
2023/04/24 10:03:00;;;;;;;;;;;12.50;52.80;;;;;;4933107;28;20044;-92
2023/04/24 10:06:08;;;;;;;1.65;1.17;;;12.90;57.20;;;;;;4951634;29;20562;-90
2023/04/24 10:08:58;;;;;;;2.25;0.80;;;14.40;54.40;;;;;;4959476;28;20130;-87
2023/04/24 10:12:07;;;;;;;;;;;;;;;;;;;;;
2023/04/24 10:15:21;;;;;;;1.40;0.73;;;16.20;47.60;;;;;;4950144;28;20039;-88
2023/04/24 10:18:15;;;;;;;1.10;0.80;;;16.90;40.80;;;;;;4947288;28;20103;-88
2023/04/24 10:21:05;;;;;;;1.00;0.80;;;15.70;27.70;;;;;;4946267;29;20055;-87
2023/04/24 10:24:22;;;;;;;5.10;1.30;;;14.30;24.10;;;;;;4949097;28;20146;-88
2023/04/24 10:27:32;;;;;;;1.70;1.10;;;13.00;26.60;;;;;;4937911;29;20047;-87
2023/04/24 10:30:20;;;;;;;2.58;1.15;;;12.10;38.20;;;;;;4931850;28;20035;-90
2023/04/24 10:33:19;;;;;;;1.38;1.00;;;12.00;41.50;;;;;;4952411;28;20054;-92
2023/04/24 10:43:07;;;;;;;2.72;1.13;;;11.80;62.20;;;;;;4960352;28;20046;-90
2023/04/24 10:46:05;;;;;;;2.78;1.48;;;11.80;60.50;;;;;;4931839;29;20130;-89
2023/04/24 10:49:09;;;;;;;2.25;1.38;;;11.40;65.70;;;;;;4937346;29;20126;-91
2023/04/24 10:52:12;;;;;;;3.30;1.30;;;11.10;74.40;;;;;;4949976;29;20058;-87
2023/04/24 10:55:37;;;;;;;2.15;1.10;;;11.00;88.80;;;;;;4944551;29;20051;-88
2023/04/24 10:58:44;;;;;;;1.42;1.33;;;11.20;96.30;;;;;;4958382;28;20039;-88
2023/04/24 11:02:06;;;;;;;2.05;1.30;;;11.50;91.50;;;;;;4896609;29;20037;-88
2023/04/24 11:05:05;;;;;;;4.38;1.52;;;12.10;91.00;;;;;;4885951;29;20138;-87
2023/04/24 11:08:23;;;;;;;2.85;1.40;;;13.30;89.60;;;;;;4898071;29;20072;-89
2023/04/24 11:11:21;;;;;;;2.00;1.33;;;13.50;64.20;;;;;;4881197;29;20045;-90
2023/04/24 11:14:21;;;;;;;2.35;1.10;;;14.10;63.80;;;;;;4901089;29;20067;-90
2023/04/24 11:17:33;;;;;;;3.50;1.30;;;14.50;57.00;;;;;;4903531;29;20043;-86
2023/04/24 11:20:26;;;;;;;1.42;1.17;;;14.00;49.40;;;;;;4945755;29;20040;-88
2023/04/24 11:31:34;;;;;;;2.33;1.30;;;12.60;46.00;;;;;;4886829;29;20120;-90
2023/04/24 11:34:25;;;;;;;1.50;1.00;;;12.10;50.40;;;;;;4883042;29;20049;-86
2023/04/24 11:37:40;;;;;;;1.10;1.10;;;11.60;54.20;;;;;;4923932;28;20074;-90
2023/04/24 12:02:10;;;;;;;;;;;;;;;;;;;;;
2023/04/24 12:06:11;;;;;;;4.07;1.63;;;12.30;58.20;;;;;;4816458;29;20118;-91
2023/04/24 12:10:21;;;;;;;2.65;1.70;;;11.50;62.70;;;;;;4771614;29;20413;-88
2023/04/24 12:13:21;;;;;;;;;;;;;;;;;;;;;
2023/04/24 12:16:50;;;;;;;4.93;1.60;;;10.80;71.40;;;;;;4868434;29;20040;-87
2023/04/24 12:20:13;;;;;;;3.35;1.60;;;10.70;82.00;;;;;;4909047;29;20063;-88
2023/04/24 12:27:33;;;;;;;2.38;1.40;;;10.80;94.50;;;;;;4952541;28;20043;-88
2023/04/24 12:30:31;;;;;;;1.98;1.45;;;10.70;94.00;;;;;;4942663;28;20044;-83
2023/04/24 12:33:47;;;;;;;1.50;1.40;;;10.90;99.90;;;;;;4934370;29;20046;-86
2023/04/24 12:37:15;;;;;;;1.83;1.60;;;11.20;99.90;;;;;;4955658;28;20039;-88
2023/04/24 12:40:50;;;;;;;1.55;1.45;;;11.50;99.90;;;;;;4921086;29;20102;-85
2023/04/24 12:44:02;;;;;;;1.52;1.38;;;11.50;99.90;;;;;;4884320;29;20064;-87
2023/04/24 12:47:54;;;;;;;1.35;1.20;;;11.60;99.90;;;;;;4867912;29;20080;-86
2023/04/24 12:50:45;;;;;;;3.22;1.40;;;12.00;99.90;;;;;;4866911;29;20178;-85
2023/04/24 12:53:55;;;;;;;2.00;1.33;;;13.00;99.90;;;;;;4823575;29;20054;-87
2023/04/24 12:56:53;;;;;;;;;;;;;;;;;;;;;
2023/04/24 13:00:02;;;;;;;1.50;1.40;;;12.20;90.90;;;;;;4788491;29;20051;-85
2023/04/24 13:03:07;;;;;;;1.70;1.50;;;11.40;93.20;;;;;;4789589;29;20127;-86
2023/04/24 13:06:05;;;;;;;3.13;1.70;;;11.10;98.60;;;;;;4828783;29;20050;-87
2023/04/24 13:09:08;;;;;;;4.68;1.80;;;11.10;99.90;;;;;;4842116;29;20073;-87
2023/04/24 13:12:16;;;;;;;3.53;1.67;;;10.90;99.90;;;;;;4834936;29;20054;-85
2023/04/24 13:15:22;;;;;;;1.83;1.67;;;10.80;99.90;;;;;;4837600;29;20050;-85
2023/04/24 13:18:59;;;;;;;;;;;;;;;;;;;;;
2023/04/24 13:22:45;;;;;;;2.08;1.80;;;10.50;99.90;;;;;;4789584;29;20108;-86
2023/04/24 13:25:57;;;;;;;2.97;1.85;;;10.50;99.90;;;;;;4841691;29;20089;-87
2023/04/24 13:29:39;;;;;;;;;;;;;;;;;;;;;
2023/04/24 13:33:47;;;;;;;;;;;;;;;;;;;;;
2023/04/24 13:37:07;;;;;;;3.13;2.10;;;11.10;99.90;;;;;;4819835;29;20128;-91
2023/04/24 13:41:00;;;;;;;4.45;1.98;;;10.90;99.90;;;;;;4830132;29;20173;-91
2023/04/24 13:49:06;;;;;;;2.20;2.00;;;10.40;99.90;;;;;;4827526;29;20128;-90
2023/04/24 13:56:41;;;;;;;5.40;2.47;;;10.50;99.90;;;;;;4798768;29;20385;-87
2023/04/24 14:00:29;;;;;;;4.97;2.60;;;10.50;99.90;;;;;;4794306;29;20054;-91
2023/04/24 14:07:55;;;;;;;3.40;2.05;;;10.50;99.90;;;;;;4745605;30;20059;-89
2023/04/24 14:10:50;;;;;;;5.93;2.00;;;10.40;99.90;;;;;;4839874;29;20064;-89
2023/04/24 14:14:07;;;;;;;;;;;;;;;;;;;;;
2023/04/24 14:17:21;;;;;;;3.95;2.17;;;10.30;99.90;;;;;;4891877;29;20104;-91
2023/04/24 14:20:29;;;;;;;3.70;2.30;;;10.30;99.90;;;;;;4936004;28;20057;-88
2023/04/24 14:23:21;;;;;;;3.58;2.10;;;10.40;99.90;;;;;;4961945;28;20051;-89
2023/04/24 14:26:58;;;;;;;3.95;1.90;;;10.70;99.90;;;;;;4945842;28;20567;-91
2023/04/24 14:29:59;;;;;;;3.72;1.88;;;11.00;99.90;;;;;;4928917;29;20168;-88
2023/04/24 14:33:33;;;;;;;3.22;2.00;;;11.10;99.90;;;;;;4928450;29;20062;-90
2023/04/24 14:37:23;;;;;;;2.42;1.80;;;11.70;99.90;;;;;;4930357;29;20043;-91
2023/04/24 14:41:14;;;;;;;3.63;1.80;;;11.80;91.30;;;;;;4914789;29;20055;-92
2023/04/24 14:44:24;;;;;;;3.55;2.00;;;11.80;79.80;;;;;;4933645;29;20077;-91
2023/04/24 14:47:52;;;;;;;2.45;1.65;;;11.90;75.40;;;;;;4934850;29;20047;-90
2023/04/24 14:51:03;;;;;;;2.22;1.58;;;11.80;72.20;;;;;;4935915;29;20143;-91
2023/04/24 14:53:53;;;;;;;2.10;1.90;;;11.90;58.20;;;;;;4932043;29;20058;-91
2023/04/24 14:57:10;;;;;;;2.63;1.60;;;11.60;63.20;;;;;;4935854;29;20107;-91
2023/04/24 14:59:57;;;;;;;3.67;2.08;;;11.20;70.80;;;;;;4943819;28;20043;-91
2023/04/24 15:02:51;;;;;;;2.33;1.75;;;11.30;69.60;;;;;;4943051;28;20632;-92
2023/04/24 15:05:46;;;;;;;3.42;1.80;;;11.20;72.40;;;;;;4951226;28;20047;-93
2023/04/24 15:08:42;;;;;;;3.45;1.60;;;11.40;78.00;;;;;;4958647;28;20053;-92
2023/04/24 15:11:34;;;;;;;4.65;1.88;;;12.10;74.20;;;;;;4957232;29;20054;-92
2023/04/24 15:14:45;;;;;;;2.70;2.00;;;12.20;57.20;;;;;;4940063;29;20058;-92
2023/04/24 15:17:40;;;;;;;2.58;1.85;;;11.90;55.10;;;;;;4947445;28;20036;-92
2023/04/24 15:24:31;;;;;;;3.55;1.90;;;11.20;64.80;;;;;;4956752;28;20046;-90
2023/04/24 15:28:25;;;;;;;2.70;2.05;;;11.10;66.30;;;;;;4957489;29;20113;-91
2023/04/24 15:31:13;;;;;;;2.90;2.15;;;10.90;83.40;;;;;;4965939;28;20183;-90
2023/04/24 15:34:51;;;;;;;4.55;1.90;;;10.90;82.30;;;;;;4879904;29;20131;-92
2023/04/24 15:38:30;;;;;;;4.13;2.17;;;11.00;90.00;;;;;;4869243;29;20093;-90
2023/04/24 15:41:50;;;;;;;;;;;;;;;;;;;;;
2023/04/24 16:02:34;;;;;;;3.25;1.67;;;11.20;96.20;;;;;;4846603;29;20603;-92
2023/04/24 16:06:26;;;;;;;2.55;1.77;;;11.90;85.80;;;;;;4836012;29;20046;-90
2023/04/24 16:13:40;;;;;;;;;;;;;;;;;;;;;
2023/04/24 16:17:03;;;;;;;2.78;1.88;;;11.40;86.50;;;;;;4872311;29;20050;-91
2023/04/24 16:20:00;;;;;;;6.30;3.35;;;11.30;78.50;;;;;;4904057;29;20040;-90
2023/04/24 16:22:59;;;;;;;3.63;2.58;;;11.20;75.90;;;;;;4891425;29;20470;-90
2023/04/24 16:25:49;;;;;;;2.03;1.83;;;11.20;81.40;;;;;;4958267;29;20047;-89
2023/04/24 16:28:42;;;;;;;3.78;2.10;;;10.90;70.20;;;;;;4956001;29;20597;-91
2023/04/24 16:31:46;;;;;;;3.53;2.10;;;10.90;75.00;;;;;;4948947;29;20047;-92
2023/04/24 16:34:34;;;;;;;2.75;2.10;;;10.90;70.80;;;;;;4949784;29;20049;-91
2023/04/24 16:37:31;;;;;;;3.08;2.13;;;10.80;67.40;;;;;;4945861;28;20039;-90
2023/04/24 16:40:20;;;;;;;1.98;1.67;;;10.70;74.90;;;;;;4961625;28;20051;-89
2023/04/24 16:43:19;;;;;;;3.35;1.70;;;10.50;75.10;;;;;;4958470;29;20369;-90
2023/04/24 16:46:13;;;;;;;2.20;1.88;;;10.30;79.20;;;;;;4929734;29;20048;-89
2023/04/24 16:49:04;;;;;;;2.30;1.70;;;10.30;85.40;;;;;;4961891;28;20098;-90
2023/04/24 16:51:58;;;;;;;3.42;1.90;;;10.30;91.90;;;;;;4929679;29;20605;-92
2023/04/24 16:54:55;;;;;;;1.65;1.52;;;10.40;91.70;;;;;;4956195;28;20403;-91
2023/04/24 16:57:48;;;;;;;4.13;2.22;;;10.50;91.50;;;;;;4954564;29;20118;-92
2023/04/24 17:00:39;;;;;;;5.90;2.75;;;10.60;95.50;;;;;;4953818;29;20062;-91
2023/04/24 17:03:31;;;;;;;4.72;2.50;;;10.60;96.20;;;;;;4951738;29;20051;-91
2023/04/24 17:06:19;;;;;;;5.07;3.40;;;10.70;97.30;;;;;;4945340;29;20051;-92
2023/04/24 17:09:14;;;;;;;4.88;2.53;;;10.80;96.60;;;;;;4949162;29;20058;-89
2023/04/24 17:12:13;;;;;;;2.05;1.60;;;10.90;97.50;;;;;;4958055;28;20050;-90
2023/04/24 17:15:07;;;;;;;3.33;2.42;;;10.90;95.80;;;;;;4945246;29;20039;-91
2023/04/24 17:18:03;;;;;;;3.05;1.60;;;10.90;92.80;;;;;;4961896;29;20054;-91
2023/04/24 17:21:19;;;;;;;;;;;;;;;;;;;;;
2023/04/24 17:24:31;;;;;;;3.72;2.22;;;10.60;90.70;;;;;;4875037;29;20094;-90
2023/04/24 17:27:28;;;;;;;3.45;2.13;;;10.40;90.00;;;;;;4882947;29;20950;-90
2023/04/24 17:30:16;;;;;;;4.65;2.30;;;10.30;91.20;;;;;;4882358;29;20057;-91
2023/04/24 17:33:04;;;;;;;4.55;2.45;;;10.20;99.90;;;;;;4873615;29;20065;-91
2023/04/24 17:35:52;;;;;;;4.30;2.03;;;10.10;98.60;;;;;;4870942;29;20053;-93
2023/04/24 17:38:40;;;;;;;5.68;2.03;;;10.00;99.90;;;;;;4880949;29;20120;-90
2023/04/24 17:41:28;;;;;;;4.40;2.00;;;9.90;99.90;;;;;;4905378;28;20035;-91
2023/04/24 17:47:35;;;;;;;5.45;2.42;;;9.70;99.90;;;;;;4946213;29;20047;-91
2023/04/24 17:50:39;;;;;;;3.88;2.17;;;9.70;99.90;;;;;;4936949;29;20149;-92
2023/04/24 17:53:37;;;;;;;3.72;2.63;;;9.70;99.90;;;;;;4951484;29;20134;-93
2023/04/24 17:56:34;;;;;;;5.72;2.45;;;9.60;99.90;;;;;;4957458;29;20362;-92
2023/04/24 17:59:43;;;;;;;3.53;2.83;;;9.50;99.90;;;;;;4962233;29;20122;-90
2023/04/24 18:02:43;;;;;;;3.95;2.58;;;9.50;99.90;;;;;;4935077;29;20481;-91
2023/04/24 18:05:37;;;;;;;3.80;2.40;;;9.50;99.90;;;;;;4943427;28;20071;-91
2023/04/24 18:08:42;;;;;;;7.85;2.65;;;9.50;99.90;;;;;;4940201;29;20051;-91
2023/04/24 18:11:48;;;;;;;4.05;2.70;;;9.50;99.90;;;;;;4946372;28;20051;-93
2023/04/24 18:14:43;;;;;;;4.25;2.78;;;9.40;99.90;;;;;;4945510;28;20378;-91
2023/04/24 18:17:33;;;;;;;4.95;2.67;;;9.30;99.90;;;;;;4933538;29;20094;-91
2023/04/24 18:20:42;;;;;;;3.25;2.72;;;9.30;99.90;;;;;;4937529;28;20381;-93
2023/04/24 18:23:34;;;;;;;4.45;2.60;;;9.20;99.90;;;;;;4940447;29;20059;-90
2023/04/24 18:26:36;;;;;;;4.47;2.70;;;9.20;99.90;;;;;;4944869;29;20063;-92
2023/04/24 18:29:30;;;;;;;5.15;2.60;;;9.20;99.90;;;;;;4938329;29;20116;-92
2023/04/24 18:32:18;;;;;;;6.10;2.70;;;9.20;99.90;;;;;;4942851;29;20417;-91
2023/04/24 18:35:06;;;;;;;4.43;2.70;;;9.20;99.90;;;;;;4951305;28;20067;-90
2023/04/24 18:37:54;;;;;;;7.88;2.72;;;9.00;99.90;;;;;;4951499;29;20047;-90
2023/04/24 18:40:43;;;;;;;4.25;2.60;;;9.00;99.90;;;;;;4950283;28;20384;-93
2023/04/24 18:43:41;;;;;;;6.18;2.70;;;9.00;99.90;;;;;;4954715;28;20141;-90
2023/04/24 18:46:40;;;;;;;7.47;3.05;;;9.10;99.90;;;;;;4954049;29;20463;-91
2023/04/24 18:49:41;;;;;;;4.60;2.60;;;9.00;99.90;;;;;;4944020;29;20051;-88
2023/04/24 18:52:29;;;;;;;3.63;2.20;;;8.80;99.90;;;;;;4952023;28;20039;-88
2023/04/24 18:55:20;;;;;;;3.97;2.40;;;8.60;99.90;;;;;;4943394;29;20055;-91
2023/04/24 18:58:08;;;;;;;4.20;1.90;;;8.40;99.90;;;;;;4955323;28;20051;-90
2023/04/24 19:01:05;;;;;;;2.10;1.75;;;8.30;99.90;;;;;;4948686;28;20051;-92
2023/04/24 19:03:55;;;;;;;2.20;1.90;;;8.20;99.90;;;;;;4939958;28;20062;-90
2023/04/24 19:06:43;;;;;;;2.70;2.10;;;8.10;99.90;;;;;;4943184;29;20441;-87
2023/04/24 19:09:30;;;;;;;3.13;1.88;;;8.00;99.90;;;;;;4955272;28;20075;-91
2023/04/24 19:12:28;;;;;;;3.15;2.15;;;7.80;99.90;;;;;;4962378;28;20038;-92
2023/04/24 19:15:23;;;;;;;2.78;2.47;;;7.70;99.90;;;;;;4956604;29;20035;-91
2023/04/24 19:18:16;;;;;;;2.53;1.85;;;7.50;1.00;;;;;;4944184;29;20075;-92
2023/04/24 19:21:30;;;;;;;5.25;2.45;;;7.50;1.00;;;;;;4951998;29;20059;-91
2023/04/24 19:24:24;;;;;;;5.47;2.45;;;7.40;1.00;;;;;;4945090;29;20043;-93
2023/04/24 19:27:12;;;;;;;6.20;2.85;;;7.30;1.00;;;;;;4956642;29;20053;-90
2023/04/24 19:30:20;;;;;;;4.10;2.17;;;7.30;1.00;;;;;;4965221;29;20052;-92
2023/04/24 19:33:07;;;;;;;3.33;2.55;;;7.30;1.00;;;;;;4950835;28;20620;-89
2023/04/24 19:36:03;;;;;;;2.88;2.42;;;7.20;1.00;;;;;;4976385;28;20047;-89
2023/04/24 19:38:52;;;;;;;3.15;2.40;;;7.10;1.00;;;;;;4975769;28;20031;-92
2023/04/24 19:41:41;;;;;;;2.63;2.40;;;7.10;17.10;;;;;;4973749;28;20091;-90
2023/04/24 19:44:29;;;;;;;4.40;2.42;;;7.00;72.00;;;;;;4978682;28;20050;-92
2023/04/24 19:47:20;;;;;;;5.15;2.63;;;7.00;99.90;;;;;;4968383;28;20035;-90
2023/04/24 19:50:08;;;;;;;3.55;2.97;;;6.90;99.90;;;;;;4981462;28;20057;-90
2023/04/24 19:53:19;;;;;;;6.50;3.15;;;6.90;99.90;;;;;;4965284;29;20106;-91
2023/04/24 19:56:07;;;;;;;3.47;2.67;;;6.70;99.90;;;;;;4971789;28;20047;-92
2023/04/24 19:59:26;;;;;;;3.53;2.95;;;6.70;99.90;;;;;;4977975;28;20391;-92
2023/04/24 20:02:14;;;;;;;4.88;3.10;;;6.60;99.90;;;;;;4951362;29;20480;-90
2023/04/24 20:05:09;;;;;;;5.00;3.80;;;6.60;99.90;;;;;;4968070;29;20083;-91
2023/04/24 20:07:59;;;;;;;4.82;3.50;;;6.60;1.00;;;;;;4960985;28;20047;-91
2023/04/24 20:10:53;;;;;;;5.72;3.40;;;6.40;1.00;;;;;;4961390;29;20126;-91
2023/04/24 20:13:52;;;;;;;4.10;3.25;;;6.30;1.00;;;;;;4971413;28;20154;-92
2023/04/24 20:16:48;;;;;;;8.13;4.50;;;6.20;15.50;;;;;;4954317;29;20118;-91
2023/04/24 20:19:37;;;;;;;5.38;3.60;;;6.00;99.90;;;;;;4943225;29;20133;-92
2023/04/24 20:22:28;;;;;;;5.45;4.30;;;5.80;99.90;;;;;;4943485;29;20049;-91
2023/04/24 20:25:16;;;;;;;6.43;4.70;;;5.70;99.90;;;;;;4940094;29;20055;-90
2023/04/24 20:28:06;;;;;;;8.05;4.57;;;5.70;1.00;;;;;;4948762;29;20051;-91
2023/04/24 20:30:56;;;;;;;5.93;4.45;;;5.80;1.00;;;;;;4955762;29;20051;-91
2023/04/24 20:33:44;;;;;;;13.20;4.88;;;5.90;99.90;;;;;;4959867;29;20150;-89
2023/04/24 20:36:32;;;;;;;6.50;4.25;;;6.10;99.90;;;;;;4947482;29;20054;-91
2023/04/24 20:39:20;;;;;;;6.15;4.57;;;6.20;99.90;;;;;;4955834;28;20047;-90
2023/04/24 20:42:09;;;;;;;5.72;4.50;;;6.20;99.90;;;;;;4943898;29;20051;-90
2023/04/24 20:44:58;;;;;;;4.55;4.15;;;6.30;99.90;;;;;;4952581;28;20051;-90
2023/04/24 20:47:48;;;;;;;6.20;3.90;;;6.40;99.90;;;;;;4953595;29;20106;-92
2023/04/24 20:50:39;;;;;;;11.30;5.88;;;6.40;99.90;;;;;;4939843;29;20105;-93
2023/04/24 20:53:28;;;;;;;12.80;8.70;;;6.50;99.90;;;;;;4952450;29;20070;-92
2023/04/24 20:56:26;;;;;;;;;;;;;;;;;;;;;
2023/04/24 20:59:30;;;;;;;12.02;8.18;;;6.50;30.00;;;;;;4962324;29;20464;-90
2023/04/24 21:03:21;;;;;;;5.97;5.00;;;6.50;19.00;;;;;;4940627;29;20027;-89
2023/04/24 21:06:13;;;;;;;7.65;4.50;;;6.50;12.30;;;;;;4947906;29;20059;-93
2023/04/24 21:09:08;;;;;;;6.03;4.53;;;6.50;49.70;;;;;;4945464;29;20062;-92
2023/04/24 21:11:58;;;;;;;5.10;4.60;;;6.50;84.70;;;;;;4955685;28;20051;-90
2023/04/24 21:37:46;;;;;;;;;;;;;;;;;;;;;
2023/04/24 22:14:08;;;;;;;;;;;;;;;;;;;;;
2023/04/24 22:29:35;;;;;;;8.95;3.95;;;7.10;99.90;;;;;;5152247;27;20456;-93
2023/04/24 22:32:56;;;;;;;6.88;4.20;;;7.10;99.90;;;;;;5122505;27;20043;-93
2023/04/24 22:36:37;;;;;;;8.07;4.55;;;7.00;99.90;;;;;;5128039;28;20050;-94
2023/04/24 22:39:35;;;;;;;;;;;;;;;;;;;;;
2023/04/24 23:00:34;;;;;;;;;;;;;;;;;;;;;
2023/04/24 23:03:26;;;;;;;6.07;4.75;;;7.20;99.90;;;;;;5051782;28;20049;-93
2023/04/24 23:06:15;;;;;;;9.25;4.50;;;7.10;99.90;;;;;;5097093;28;20067;-93
2023/04/24 23:30:41;;;;;;;10.75;4.60;;;6.90;1.00;;;;;;5030486;28;20117;-92
2023/04/24 23:54:42;;;;;;;;;;;;;;;;;;;;;
2023/04/24 23:58:23;;;;;;;8.30;4.88;;;6.70;99.90;;;;;;4983768;28;20042;-90
